createdAt,value
2017-08-16T00:00:42.555Z,8.70
2017-08-16T00:03:10.908Z,9.37
2017-08-16T00:05:39.446Z,9.07
2017-08-16T00:08:08.117Z,9.13
2017-08-16T00:10:37.734Z,8.97
2017-08-16T00:13:06.855Z,8.33
2017-08-16T00:15:36.548Z,8.77
2017-08-16T00:18:05.403Z,8.60
2017-08-16T00:20:35.052Z,8.20
2017-08-16T00:23:03.596Z,9.00
2017-08-16T00:25:33.013Z,8.00
2017-08-16T00:28:01.937Z,7.93
2017-08-16T00:30:30.725Z,7.90
2017-08-16T00:33:00.024Z,8.00
2017-08-16T00:35:29.085Z,7.23
2017-08-16T00:37:59.488Z,6.87
2017-08-16T00:40:29.388Z,7.13
2017-08-16T00:42:58.721Z,7.40
2017-08-16T00:45:27.756Z,7.00
2017-08-16T00:47:57.237Z,7.30
2017-08-16T00:50:26.254Z,7.00
2017-08-16T00:52:55.458Z,7.40
2017-08-16T00:55:24.220Z,7.03
2017-08-16T00:57:52.972Z,7.17
2017-08-16T01:00:22.046Z,7.10
2017-08-16T01:02:51.157Z,6.90
2017-08-16T01:05:20.330Z,7.20
2017-08-16T01:07:49.186Z,7.10
2017-08-16T01:10:18.114Z,6.90
2017-08-16T01:12:46.741Z,7.60
2017-08-16T01:15:15.347Z,7.33
2017-08-16T01:17:44.785Z,7.30
2017-08-16T01:20:13.732Z,7.10
2017-08-16T01:22:43.051Z,7.33
2017-08-16T01:25:11.417Z,7.10
2017-08-16T01:27:40.428Z,7.07
2017-08-16T01:30:09.113Z,6.50
2017-08-16T01:32:38.004Z,6.20
2017-08-16T01:35:06.344Z,6.73
2017-08-16T01:37:35.066Z,6.93
2017-08-16T01:40:04.718Z,6.97
2017-08-16T01:42:33.948Z,7.03
2017-08-16T01:45:02.823Z,6.53
2017-08-16T01:47:31.462Z,6.77
2017-08-16T01:50:00.745Z,6.47
2017-08-16T01:52:29.650Z,5.93
2017-08-16T01:54:58.229Z,6.50
2017-08-16T01:57:27.174Z,6.53
2017-08-16T01:59:56.524Z,6.13
2017-08-16T02:02:25.596Z,6.80
2017-08-16T02:04:54.360Z,6.80
2017-08-16T02:07:23.266Z,6.70
2017-08-16T02:09:52.274Z,6.57
2017-08-16T02:12:20.765Z,5.97
2017-08-16T02:14:50.390Z,5.87
2017-08-16T02:17:19.148Z,6.07
2017-08-16T02:19:47.803Z,5.20
2017-08-16T02:22:16.785Z,5.77
2017-08-16T02:24:45.621Z,5.47
2017-08-16T02:27:14.787Z,6.30
2017-08-16T02:29:43.490Z,6.67
2017-08-16T02:32:12.138Z,7.30
2017-08-16T02:34:40.918Z,6.57
2017-08-16T02:37:10.875Z,5.50
2017-08-16T02:39:39.856Z,6.53
2017-08-16T02:42:09.277Z,5.90
2017-08-16T02:44:38.060Z,6.10
2017-08-16T02:47:06.713Z,5.77
2017-08-16T02:49:35.867Z,5.80
2017-08-16T02:52:04.951Z,5.87
2017-08-16T02:54:33.500Z,6.20
2017-08-16T02:57:02.304Z,5.37
2017-08-16T02:59:30.902Z,6.30
2017-08-16T03:01:59.585Z,5.70
2017-08-16T03:04:28.851Z,5.70
2017-08-16T03:06:57.903Z,6.23
2017-08-16T03:09:26.694Z,5.70
2017-08-16T03:11:55.797Z,5.60
2017-08-16T03:14:26.100Z,5.33
2017-08-16T03:16:55.096Z,5.57
2017-08-16T03:19:24.474Z,5.70
2017-08-16T03:21:53.781Z,5.53
2017-08-16T03:24:22.590Z,5.20
2017-08-16T03:26:51.679Z,5.50
2017-08-16T03:29:20.627Z,5.37
2017-08-16T03:31:49.360Z,5.40
2017-08-16T03:34:18.388Z,6.10
2017-08-16T03:36:46.851Z,5.70
2017-08-16T03:39:15.937Z,8.17
2017-08-16T03:41:44.794Z,5.20
2017-08-16T03:44:13.913Z,5.50
2017-08-16T03:46:42.703Z,5.93
2017-08-16T03:49:11.531Z,5.60
2017-08-16T03:51:40.595Z,5.50
2017-08-16T03:54:09.791Z,5.47
2017-08-16T03:56:38.482Z,5.53
2017-08-16T03:59:07.344Z,6.53
2017-08-16T04:01:36.833Z,5.10
2017-08-16T04:04:05.944Z,5.33
2017-08-16T04:06:34.849Z,5.43
2017-08-16T04:09:04.995Z,5.43
2017-08-16T04:11:34.731Z,4.73
2017-08-16T04:14:03.638Z,4.80
2017-08-16T04:16:32.456Z,4.60
2017-08-16T04:19:01.607Z,4.67
2017-08-16T04:21:30.135Z,4.90
2017-08-16T04:23:59.368Z,5.67
2017-08-16T04:26:28.326Z,4.73
2017-08-16T04:28:57.208Z,4.63
2017-08-16T04:31:25.989Z,4.50
2017-08-16T04:33:55.043Z,4.80
2017-08-16T04:36:24.354Z,4.90
2017-08-16T04:38:53.784Z,4.40
2017-08-16T04:41:22.956Z,4.77
2017-08-16T04:43:52.156Z,5.43
2017-08-16T04:46:21.307Z,4.77
2017-08-16T04:48:53.445Z,4.40
2017-08-16T04:51:22.395Z,5.03
2017-08-16T04:53:51.874Z,4.50
2017-08-16T04:56:21.234Z,5.10
2017-08-16T04:58:50.376Z,4.37
2017-08-16T05:01:19.180Z,4.50
2017-08-16T05:03:49.456Z,4.73
2017-08-16T05:06:18.316Z,4.30
2017-08-16T05:08:46.882Z,4.87
2017-08-16T05:11:15.764Z,4.80
2017-08-16T05:13:45.058Z,4.50
2017-08-16T05:16:14.628Z,5.07
2017-08-16T05:18:44.680Z,5.10
2017-08-16T05:21:14.011Z,5.40
2017-08-16T05:23:42.584Z,5.10
2017-08-16T05:26:11.544Z,4.80
2017-08-16T05:28:40.773Z,5.63
2017-08-16T05:31:09.449Z,4.50
2017-08-16T05:33:38.204Z,5.70
2017-08-16T05:36:06.996Z,4.20
2017-08-16T05:38:35.805Z,4.60
2017-08-16T05:41:05.490Z,4.07
2017-08-16T05:43:34.424Z,4.10
2017-08-16T05:46:03.102Z,4.37
2017-08-16T05:48:31.764Z,4.10
2017-08-16T05:51:00.772Z,4.00
2017-08-16T05:53:29.623Z,5.07
2017-08-16T05:55:58.242Z,4.43
2017-08-16T05:58:27.238Z,4.93
2017-08-16T06:00:56.048Z,3.70
2017-08-16T06:03:24.851Z,4.00
2017-08-16T06:05:53.775Z,3.97
2017-08-16T06:08:23.475Z,3.87
2017-08-16T06:10:53.167Z,4.27
2017-08-16T06:13:22.169Z,4.27
2017-08-16T06:15:51.379Z,4.70
2017-08-16T06:18:20.733Z,5.20
2017-08-16T06:20:50.200Z,5.00
2017-08-16T06:23:18.868Z,4.63
2017-08-16T06:25:47.352Z,3.80
2017-08-16T06:28:16.528Z,4.10
2017-08-16T06:30:45.647Z,4.23
2017-08-16T06:33:14.640Z,4.17
2017-08-16T06:35:43.458Z,5.87
2017-08-16T06:38:12.653Z,3.97
2017-08-16T06:40:41.615Z,4.37
2017-08-16T06:43:10.281Z,6.73
2017-08-16T06:45:39.984Z,7.30
2017-08-16T06:48:08.802Z,5.40
2017-08-16T06:50:37.553Z,6.40
2017-08-16T06:53:06.647Z,6.17
2017-08-16T06:55:35.568Z,7.00
2017-08-16T06:58:04.810Z,6.03
2017-08-16T07:00:33.544Z,6.10
2017-08-16T07:03:02.837Z,6.00
2017-08-16T07:05:31.657Z,4.80
2017-08-16T07:08:00.310Z,5.67
2017-08-16T07:10:29.754Z,6.30
2017-08-16T07:12:58.475Z,5.47
2017-08-16T07:15:27.275Z,8.00
2017-08-16T07:17:56.093Z,9.63
2017-08-16T07:20:25.048Z,10.10
2017-08-16T07:22:53.752Z,6.50
2017-08-16T07:25:22.655Z,5.80
2017-08-16T07:27:51.511Z,6.80
2017-08-16T07:30:20.952Z,6.63
2017-08-16T07:32:49.997Z,9.80
2017-08-16T07:35:18.997Z,7.27
2017-08-16T07:37:47.603Z,5.63
2017-08-16T07:40:16.550Z,8.17
2017-08-16T07:42:45.374Z,8.47
2017-08-16T07:45:14.558Z,8.80
2017-08-16T07:47:43.437Z,8.70
2017-08-16T07:50:12.374Z,9.23
2017-08-16T07:52:41.677Z,10.17
2017-08-16T07:55:10.431Z,11.27
2017-08-16T07:57:39.513Z,10.50
2017-08-16T08:00:08.749Z,7.83
2017-08-16T08:02:37.599Z,8.13
2017-08-16T08:05:06.935Z,8.87
2017-08-16T08:07:38.291Z,7.50
2017-08-16T08:10:08.037Z,7.63
2017-08-16T08:12:38.502Z,9.83
2017-08-16T08:15:08.482Z,11.07
2017-08-16T08:17:39.401Z,10.57
2017-08-16T08:20:08.921Z,9.30
2017-08-16T08:22:37.561Z,8.70
2017-08-16T08:25:06.089Z,9.50
2017-08-16T08:27:34.534Z,8.33
2017-08-16T08:30:03.290Z,10.00
2017-08-16T08:32:31.533Z,9.20
2017-08-16T08:35:05.868Z,8.40
2017-08-16T08:37:40.364Z,9.80
2017-08-16T08:40:09.589Z,7.70
2017-08-16T08:42:37.839Z,8.80
2017-08-16T08:45:09.586Z,11.37
2017-08-16T08:47:38.302Z,11.03
2017-08-16T08:50:06.972Z,13.03
2017-08-16T08:52:35.311Z,8.83
2017-08-16T08:55:03.704Z,12.17
2017-08-16T08:57:32.861Z,9.73
2017-08-16T09:00:03.655Z,9.80
2017-08-16T09:02:32.756Z,8.30
2017-08-16T09:05:01.291Z,11.00
2017-08-16T09:07:29.568Z,7.23
2017-08-16T09:09:57.860Z,9.77
2017-08-16T09:12:26.113Z,22.13
2017-08-16T09:14:54.489Z,6.90
2017-08-16T09:17:22.871Z,6.63
2017-08-16T09:19:51.115Z,9.47
2017-08-16T09:22:19.366Z,4.50
2017-08-16T09:24:47.654Z,6.83
2017-08-16T09:27:16.300Z,5.90
2017-08-16T09:29:44.539Z,8.87
2017-08-16T09:32:12.808Z,9.30
2017-08-16T09:34:41.075Z,8.50
2017-08-16T09:37:09.348Z,9.63
2017-08-16T09:39:37.993Z,6.80
2017-08-16T09:42:06.233Z,9.90
2017-08-16T09:44:34.480Z,10.40
2017-08-16T09:47:02.774Z,7.27
2017-08-16T09:49:31.009Z,8.80
2017-08-16T09:51:59.249Z,10.20
2017-08-16T09:54:27.628Z,9.30
2017-08-16T09:56:55.871Z,6.83
2017-08-16T09:59:24.100Z,7.57
2017-08-16T10:01:52.376Z,9.17
2017-08-16T10:04:20.625Z,9.33
2017-08-16T10:06:48.859Z,10.27
2017-08-16T10:09:17.384Z,7.10
2017-08-16T10:11:45.895Z,6.97
2017-08-16T10:14:14.268Z,6.37
2017-08-16T10:16:42.544Z,4.30
2017-08-16T10:19:10.785Z,4.50
2017-08-16T10:21:39.306Z,4.50
2017-08-16T10:24:07.577Z,4.80
2017-08-16T10:26:35.835Z,4.90
2017-08-16T10:29:04.123Z,5.53
2017-08-16T10:31:32.403Z,6.73
2017-08-16T10:34:00.636Z,4.57
2017-08-16T10:36:28.884Z,5.43
2017-08-16T10:38:57.763Z,5.23
2017-08-16T10:41:25.996Z,5.63
2017-08-16T10:43:54.516Z,10.30
2017-08-16T10:46:22.798Z,13.83
2017-08-16T10:48:51.430Z,7.40
2017-08-16T10:51:20.148Z,5.90
2017-08-16T10:53:48.387Z,6.87
2017-08-16T10:56:16.648Z,6.03
2017-08-16T10:58:44.973Z,6.80
2017-08-16T11:01:13.237Z,7.00
2017-08-16T11:03:41.522Z,6.60
2017-08-16T11:06:09.758Z,7.20
2017-08-16T11:08:38.100Z,7.53
2017-08-16T11:11:06.350Z,6.93
2017-08-16T11:13:34.779Z,6.47
2017-08-16T11:16:03.122Z,8.10
2017-08-16T11:18:31.394Z,8.07
2017-08-16T11:20:59.651Z,6.33
2017-08-16T11:23:27.936Z,7.30
2017-08-16T11:25:56.235Z,8.17
2017-08-16T11:28:24.490Z,6.80
2017-08-16T11:30:52.765Z,8.17
2017-08-16T11:33:21.246Z,11.67
2017-08-16T11:35:49.519Z,9.40
2017-08-16T11:38:17.824Z,9.27
2017-08-16T11:40:46.076Z,8.10
2017-08-16T11:43:14.313Z,7.10
2017-08-16T11:45:43.372Z,7.20
2017-08-16T11:48:11.653Z,10.60
2017-08-16T11:50:39.905Z,6.80
2017-08-16T11:53:08.195Z,6.80
2017-08-16T11:55:36.607Z,7.30
2017-08-16T11:58:04.938Z,7.10
2017-08-16T12:00:33.245Z,7.30
2017-08-16T12:03:01.512Z,10.87
2017-08-16T12:05:29.764Z,14.10
2017-08-16T12:07:58.514Z,9.17
2017-08-16T12:10:27.069Z,8.40
2017-08-16T12:12:55.333Z,9.50
2017-08-16T12:15:23.622Z,9.50
2017-08-16T12:17:51.863Z,9.10
2017-08-16T12:20:20.120Z,10.10
2017-08-16T12:22:48.407Z,9.50
2017-08-16T12:25:16.644Z,8.50
2017-08-16T12:27:44.907Z,11.10
2017-08-16T12:30:13.210Z,8.90
2017-08-16T12:32:41.619Z,10.63
2017-08-16T12:35:09.852Z,8.43
2017-08-16T12:37:38.116Z,8.13
2017-08-16T12:40:06.413Z,9.20
2017-08-16T12:42:34.661Z,8.30
2017-08-16T12:45:02.933Z,12.60
2017-08-16T12:47:31.194Z,10.67
2017-08-16T12:49:59.843Z,9.13
2017-08-16T12:52:28.101Z,11.23
2017-08-16T12:54:56.340Z,12.43
2017-08-16T12:57:24.602Z,8.10
2017-08-16T12:59:52.892Z,7.40
2017-08-16T13:02:21.589Z,11.70
2017-08-16T13:04:49.852Z,13.00
2017-08-16T13:07:18.140Z,7.53
2017-08-16T13:09:46.518Z,8.67
2017-08-16T13:12:14.852Z,8.57
2017-08-16T13:14:43.209Z,9.80
2017-08-16T13:17:11.607Z,23.23
2017-08-16T13:19:40.062Z,8.33
2017-08-16T13:22:08.340Z,7.50
2017-08-16T13:24:36.587Z,7.43
2017-08-16T13:27:04.840Z,7.90
2017-08-16T13:29:33.541Z,7.80
2017-08-16T13:32:01.796Z,8.60
2017-08-16T13:34:30.039Z,8.63
2017-08-16T13:36:58.550Z,11.00
2017-08-16T13:39:26.789Z,9.17
2017-08-16T13:41:55.054Z,9.30
2017-08-16T13:44:23.324Z,8.93
2017-08-16T13:46:51.560Z,8.60
2017-08-16T13:49:19.824Z,10.97
2017-08-16T13:51:48.136Z,10.23
2017-08-16T13:54:16.418Z,12.57
2017-08-16T13:56:44.657Z,9.07
2017-08-16T13:59:13.577Z,9.50
2017-08-16T14:01:41.855Z,8.77
2017-08-16T14:04:10.325Z,7.80
2017-08-16T14:06:38.667Z,8.10
2017-08-16T14:09:06.927Z,8.47
2017-08-16T14:11:35.173Z,10.50
2017-08-16T14:14:03.684Z,7.40
2017-08-16T14:16:33.304Z,10.30
2017-08-16T14:19:01.575Z,10.33
2017-08-16T14:21:29.849Z,8.63
2017-08-16T14:23:58.118Z,8.53
2017-08-16T14:26:27.506Z,9.07
2017-08-16T14:28:55.985Z,10.50
2017-08-16T14:31:24.242Z,7.87
2017-08-16T14:33:52.915Z,10.87
2017-08-16T14:36:21.268Z,9.23
2017-08-16T14:38:49.739Z,7.90
2017-08-16T14:41:18.081Z,7.17
2017-08-16T14:43:46.389Z,9.27
2017-08-16T14:46:14.694Z,7.30
2017-08-16T14:48:43.329Z,6.67
2017-08-16T14:51:11.618Z,6.03
2017-08-16T14:53:40.709Z,6.17
2017-08-16T14:56:09.002Z,5.80
2017-08-16T14:58:37.290Z,5.77
2017-08-16T15:01:05.544Z,6.23
2017-08-16T15:03:33.781Z,6.30
2017-08-16T15:06:02.081Z,6.80
2017-08-16T15:08:30.332Z,7.30
2017-08-16T15:10:58.758Z,8.17
2017-08-16T15:13:27.030Z,6.70
2017-08-16T15:15:55.533Z,7.03
2017-08-16T15:18:23.791Z,7.50
2017-08-16T15:20:52.167Z,7.20
2017-08-16T15:23:20.854Z,6.60
2017-08-16T15:25:49.110Z,7.00
2017-08-16T15:28:17.364Z,7.47
2017-08-16T15:30:45.617Z,7.40
2017-08-16T15:33:13.903Z,7.10
2017-08-16T15:35:42.591Z,7.10
2017-08-16T15:38:10.844Z,7.50
2017-08-16T15:40:39.572Z,8.20
2017-08-16T15:43:07.909Z,8.50
2017-08-16T15:45:36.561Z,9.00
2017-08-16T15:48:04.822Z,7.40
2017-08-16T15:50:33.090Z,8.50
2017-08-16T15:53:01.363Z,8.83
2017-08-16T15:55:29.673Z,8.50
2017-08-16T15:57:57.968Z,9.40
2017-08-16T16:00:26.224Z,9.00
2017-08-16T16:02:54.471Z,7.20
2017-08-16T16:05:22.751Z,7.40
2017-08-16T16:07:50.981Z,9.70
2017-08-16T16:10:19.640Z,10.47
2017-08-16T16:12:47.908Z,7.50
2017-08-16T16:15:16.375Z,8.57
2017-08-16T16:17:44.613Z,8.00
2017-08-16T16:20:12.878Z,7.87
2017-08-16T16:22:41.107Z,8.47
2017-08-16T16:25:09.569Z,8.07
2017-08-16T16:27:38.000Z,8.73
2017-08-16T16:30:06.253Z,9.70
2017-08-16T16:32:34.519Z,8.83
2017-08-16T16:35:02.816Z,9.43
2017-08-16T16:37:31.288Z,8.27
2017-08-16T16:39:59.554Z,8.50
2017-08-16T16:42:27.841Z,8.80
2017-08-16T16:44:56.073Z,8.80
2017-08-16T16:47:24.329Z,8.00
2017-08-16T16:49:53.056Z,8.70
2017-08-16T16:52:21.331Z,8.30
2017-08-16T16:54:49.571Z,9.00
2017-08-16T16:57:17.877Z,10.10
2017-08-16T16:59:46.581Z,8.40
2017-08-16T17:02:14.838Z,7.57
2017-08-16T17:04:43.840Z,8.20
2017-08-16T17:07:12.355Z,8.00
2017-08-16T17:09:40.610Z,8.30
2017-08-16T17:12:08.892Z,7.70
2017-08-16T17:14:37.130Z,8.87
2017-08-16T17:17:05.367Z,9.10
2017-08-16T17:19:33.668Z,7.93
2017-08-16T17:22:01.964Z,8.37
2017-08-16T17:24:30.208Z,8.03
2017-08-16T17:26:58.868Z,8.20
2017-08-16T17:29:27.145Z,7.87
2017-08-16T17:31:55.416Z,7.53
2017-08-16T17:34:23.720Z,8.50
2017-08-16T17:36:52.074Z,9.20
2017-08-16T17:39:20.422Z,8.20
2017-08-16T17:41:57.450Z,6.90
2017-08-16T17:44:26.103Z,9.40
2017-08-16T17:46:54.356Z,8.60
2017-08-16T17:49:22.628Z,8.63
2017-08-16T17:51:50.897Z,7.47
2017-08-16T17:54:26.032Z,9.73
2017-08-16T17:56:54.293Z,10.00
2017-08-16T17:59:22.628Z,9.93
2017-08-16T18:01:50.864Z,9.00
2017-08-16T18:04:19.376Z,11.20
2017-08-16T18:06:47.619Z,8.93
2017-08-16T18:09:15.968Z,9.87
2017-08-16T18:11:44.715Z,9.57
2017-08-16T18:14:12.971Z,10.83
2017-08-16T18:16:41.309Z,10.33
2017-08-16T18:19:09.540Z,9.97
2017-08-16T18:21:37.783Z,10.00
2017-08-16T18:24:06.152Z,10.60
2017-08-16T18:26:34.405Z,11.53
2017-08-16T18:29:03.052Z,10.60
2017-08-16T18:31:31.544Z,12.07
2017-08-16T18:33:59.901Z,11.10
2017-08-16T18:36:28.140Z,9.03
2017-08-16T18:38:56.434Z,8.73
2017-08-16T18:41:24.677Z,8.77
2017-08-16T18:43:53.333Z,11.50
2017-08-16T18:46:21.638Z,11.67
2017-08-16T18:48:49.872Z,9.13
2017-08-16T18:51:18.128Z,12.10
2017-08-16T18:53:46.430Z,9.70
2017-08-16T18:56:14.688Z,11.83
2017-08-16T18:58:43.194Z,12.40
2017-08-16T19:01:11.467Z,12.90
2017-08-16T19:03:39.711Z,12.00
2017-08-16T19:06:07.963Z,10.60
2017-08-16T19:08:36.228Z,8.97
2017-08-16T19:11:04.858Z,13.23
2017-08-16T19:13:33.116Z,9.70
2017-08-16T19:16:01.487Z,8.63
2017-08-16T19:18:29.726Z,8.90
2017-08-16T19:20:57.972Z,11.53
2017-08-16T19:23:26.251Z,12.33
2017-08-16T19:25:54.516Z,16.40
2017-08-16T19:28:22.755Z,13.77
2017-08-16T19:30:51.052Z,15.20
2017-08-16T19:33:19.320Z,16.33
2017-08-16T19:35:47.584Z,16.10
2017-08-16T19:38:16.272Z,16.47
2017-08-16T19:40:44.829Z,17.80
2017-08-16T19:43:13.116Z,15.50
2017-08-16T19:45:41.842Z,16.57
2017-08-16T19:48:10.569Z,15.07
2017-08-16T19:50:39.011Z,16.07
2017-08-16T19:53:07.319Z,18.63
2017-08-16T19:55:35.561Z,20.93
2017-08-16T19:58:03.814Z,18.20
2017-08-16T20:00:32.131Z,18.00
2017-08-16T20:03:00.372Z,14.83
2017-08-16T20:05:28.656Z,15.30
2017-08-16T20:07:56.937Z,18.10
2017-08-16T20:10:25.313Z,16.93
2017-08-16T20:12:53.549Z,19.03
2017-08-16T20:15:22.276Z,19.63
2017-08-16T20:17:50.535Z,19.63
2017-08-16T20:20:18.814Z,20.97
2017-08-16T20:22:47.122Z,18.70
2017-08-16T20:25:15.364Z,19.57
2017-08-16T20:27:43.631Z,18.50
2017-08-16T20:30:12.332Z,17.63
2017-08-16T20:32:40.577Z,18.07
2017-08-16T20:35:08.848Z,18.90
2017-08-16T20:37:37.138Z,19.17
2017-08-16T20:40:05.796Z,19.40
2017-08-16T20:42:34.081Z,21.87
2017-08-16T20:45:02.393Z,21.23
2017-08-16T20:47:31.055Z,21.43
2017-08-16T20:50:00.620Z,21.80
2017-08-16T20:52:29.156Z,21.07
2017-08-16T20:54:57.860Z,21.87
2017-08-16T20:57:26.177Z,24.83
2017-08-16T20:59:54.646Z,24.80
2017-08-16T21:02:22.920Z,17.93
2017-08-16T21:04:51.157Z,19.20
2017-08-16T21:07:19.450Z,21.00
2017-08-16T21:09:47.818Z,21.73
2017-08-16T21:12:16.083Z,21.93
2017-08-16T21:14:44.601Z,18.97
2017-08-16T21:17:12.928Z,21.10
2017-08-16T21:19:43.056Z,20.13
2017-08-16T21:22:11.872Z,22.03
2017-08-16T21:24:40.133Z,22.77
2017-08-16T21:27:08.396Z,21.87
2017-08-16T21:29:38.028Z,21.00
2017-08-16T21:32:06.323Z,22.57
2017-08-16T21:34:34.599Z,21.70
2017-08-16T21:37:02.867Z,20.23
2017-08-16T21:39:31.161Z,21.00
2017-08-16T21:41:59.439Z,22.60
2017-08-16T21:44:28.104Z,23.67
2017-08-16T21:46:56.668Z,22.20
2017-08-16T21:49:24.930Z,22.17
2017-08-16T21:51:53.388Z,23.10
2017-08-16T21:54:21.662Z,24.00
2017-08-16T21:56:50.003Z,24.30
2017-08-16T21:59:18.414Z,24.17
2017-08-16T22:01:46.668Z,23.77
2017-08-16T22:04:14.929Z,24.30
2017-08-16T22:06:43.766Z,25.17
2017-08-16T22:09:12.411Z,22.70
2017-08-16T22:11:41.214Z,26.30
2017-08-16T22:14:10.216Z,25.63
2017-08-16T22:16:39.218Z,25.60
2017-08-16T22:19:08.077Z,27.17
2017-08-16T22:21:36.913Z,25.57
2017-08-16T22:24:05.810Z,26.00
2017-08-16T22:26:34.538Z,27.70
2017-08-16T22:29:03.168Z,27.03
2017-08-16T22:31:31.893Z,28.97
2017-08-16T22:34:00.641Z,27.17
2017-08-16T22:36:29.312Z,29.20
2017-08-16T22:38:57.953Z,27.87
2017-08-16T22:41:26.670Z,26.97
2017-08-16T22:43:55.713Z,27.90
2017-08-16T22:46:24.397Z,29.63
2017-08-16T22:48:53.767Z,27.00
2017-08-16T22:51:22.655Z,26.30
2017-08-16T22:53:51.494Z,26.10
2017-08-16T22:56:20.184Z,31.30
2017-08-16T22:58:49.000Z,32.17
2017-08-16T23:01:17.858Z,31.67
2017-08-16T23:03:46.731Z,31.00
2017-08-16T23:06:15.619Z,30.43
2017-08-16T23:08:44.708Z,30.73
2017-08-16T23:11:13.307Z,32.80
2017-08-16T23:13:42.430Z,33.10
2017-08-16T23:16:11.424Z,31.63
2017-08-16T23:18:44.013Z,31.07
2017-08-16T23:21:13.314Z,31.50
2017-08-16T23:23:41.996Z,32.83
2017-08-16T23:26:10.808Z,32.50
2017-08-16T23:28:39.718Z,32.10
2017-08-16T23:31:08.361Z,34.13
2017-08-16T23:33:37.274Z,36.13
2017-08-16T23:36:06.208Z,36.23
2017-08-16T23:38:34.943Z,35.13
2017-08-16T23:41:03.574Z,33.20
2017-08-16T23:43:32.417Z,34.10
2017-08-16T23:46:01.314Z,35.10
2017-08-16T23:48:29.931Z,34.47
2017-08-16T23:50:58.773Z,35.20
2017-08-16T23:53:27.636Z,34.00
2017-08-16T23:55:56.439Z,34.50
2017-08-16T23:58:25.305Z,32.53
